NY/NJ Local METAR Reports

No Warnings, Watches, or Advisories
KNYC - NYC/Central Park, NY, USA
Distance from station: NE 4mi, 7km
Updated: 07/05/2022 4:51am
Clear
Clear
 Wind from WSW
Wind: WSW 5 mph , 7 km/h
Temperature: 73°F , 23°C
Dew Point: 54°F , 12°C
Humidity: 50%
Barometer: 30.11 inHg , 1019.6 hPa
Clouds: Clear
Visibility: 10 miles , 16 km
2022/07/05 08:51 KNYC 050851Z AUTO 24004KT 10SM CLR 23/12 A3011 RMK AO2 SLP186 T02330122 56008 $
KEWR - Newark, NJ, USA
Distance from station: WSW 8mi, 13km
Updated: 07/05/2022 4:51am
Mostly cloudy
Mostly cloudy
 Wind from SW
Wind: SW 6 mph , 9 km/h
Temperature: 73°F , 23°C
Dew Point: 55°F , 13°C
Humidity: 53%
Barometer: 30.09 inHg , 1019 hPa
Clouds: Mostly cloudy
Visibility: 10 miles , 16 km
Cloud details: Few Clouds 10000 ft
Mostly cloudy 22000 ft
2022/07/05 08:51 KEWR 050851Z 23005KT 10SM FEW100 BKN220 23/13 A3009 RMK AO2 SLP188 T02280128 56005
 
KLGA - NYC/La Guardia, NY, USA
Distance from station: ENE 8mi, 13km
Updated: 07/05/2022 4:51am
Mostly cloudy
Mostly cloudy
 Wind from S
Wind: S 7 mph , 11 km/h
Temperature: 75°F , 24°C
Dew Point: 52°F , 11°C
Humidity: 44%
Barometer: 30.08 inHg , 1018.6 hPa
Clouds: Mostly cloudy
Visibility: 10 miles , 16 km
Cloud details: Partly cloudy 20000 ft
Mostly cloudy 25000 ft
2022/07/05 08:51 KLGA 050851Z 19006KT 10SM SCT200 BKN250 24/11 A3008 RMK AO2 SLP184 T02390111 56007
KTEB - Teterboro, NJ, USA
Distance from station: N 9mi, 14km
Updated: 07/05/2022 4:51am
Clear
Clear
 Wind from SSW
Wind: SSW 5 mph , 7 km/h
Temperature: 70°F , 21°C
Dew Point: 55°F , 13°C
Humidity: 60%
Barometer: 30.07 inHg , 1018.3 hPa
Clouds: Clear
Visibility: 10 miles , 16 km
2022/07/05 08:51 KTEB 050851Z 20004KT 10SM CLR 21/13 A3007 RMK AO2 SLP183 T02060133 56007
 
KJFK - NYC/Jfk Arpt, NY, USA
Distance from station: ESE 16mi, 25km
Updated: 07/05/2022 4:51am
Mostly cloudy
Mostly cloudy
 Wind from SW
Wind: SW 6 mph , 9 km/h
Temperature: 70°F , 21°C
Dew Point: 59°F , 15°C
Humidity: 69%
Barometer: 30.10 inHg , 1019.3 hPa
Clouds: Mostly cloudy
Visibility: 10 miles , 16 km
Cloud details: Partly cloudy 20000 ft
Mostly cloudy 25000 ft
2022/07/05 08:51 KJFK 050851Z 22005KT 10SM SCT200 BKN250 21/15 A3010 RMK AO2 SLP191 T02060150 58007
KCDW - Caldwell, NJ, USA
Distance from station: NW 16mi, 26km
Updated: 07/05/2022 4:53am
Clear
Clear
 Wind from calm
Wind: Calm
Temperature: 68°F , 20°C
Dew Point: 55°F , 13°C
Humidity: 64%
Barometer: 30.09 inHg , 1019 hPa
Clouds: Clear
Visibility: 10 miles , 16 km
2022/07/05 08:53 KCDW 050853Z AUTO 00000KT 10SM CLR 20/13 A3009 RMK AO2 SLP195 T02000128 56005
 
KMMU - Morristown Muni, NJ, USA
Distance from station: W 20mi, 33km
Updated: 07/05/2022 5:15am
Clear
Clear
 Wind from calm
Wind: Calm
Temperature: 63°F , 17°C
Dew Point: 59°F , 15°C
Humidity: 88%
Barometer: 30.10 inHg , 1019.3 hPa
Clouds: Clear
Visibility: 10 miles , 16 km
2022/07/05 09:15 KMMU 050915Z AUTO 00000KT 10SM CLR 17/15 A3010 RMK AO2
KHPN - White Plains, NY, USA
Distance from station: NE 28mi, 46km
Updated: 07/05/2022 4:56am
Mostly cloudy
Mostly cloudy
 Wind from calm
Wind: Calm
Temperature: 64°F , 18°C
Dew Point: 61°F , 16°C
Humidity: 88%
Barometer: 30.08 inHg , 1018.6 hPa
Clouds: Mostly cloudy
Visibility: 10 miles , 16 km
Cloud details: Mostly cloudy 12000 ft
2022/07/05 08:56 KHPN 050856Z 00000KT 10SM BKN120 18/16 A3008 RMK AO2 SLP181 T01830156 56007
 
KFRG - Farmingdale, NY, USA
Distance from station: E 32mi, 52km
Updated: 07/05/2022 4:53am
Clear
Clear
 Wind from SSW
Wind: SSW 5 mph , 7 km/h
Temperature: 70°F , 21°C
Dew Point: 57°F , 14°C
Humidity: 64%
Barometer: 30.09 inHg , 1019 hPa
Clouds: Clear
Visibility: 10 miles , 16 km
2022/07/05 08:53 KFRG 050853Z AUTO 20004KT 10SM CLR 21/14 A3009 RMK AO2 SLP190 T02060144 56006
KSMQ - Somerville, NJ, USA
Distance from station: WSW 34mi, 55km
Updated: 07/05/2022 4:53am
Mist, Clear
Mist, Clear
 Wind from calm
Wind: Calm
Temperature: 63°F , 17°C
Dew Point: 61°F , 16°C
Humidity: 94%
Barometer: 30.08 inHg , 1018.6 hPa
Summary: Mist
Clouds: Clear
Visibility: 6 miles , 10 km
2022/07/05 08:53 KSMQ 050853Z AUTO 00000KT 6SM BR CLR 17/16 A3008 RMK AO2 SLP186 T01670156 56006
 
KBLM - Belmar/Farmdale, NJ, USA
Distance from station: S 40mi, 64km
Updated: 07/05/2022 4:56am
Clear
Clear
 Wind from SW
Wind: SW 6 mph , 9 km/h
Temperature: 66°F , 19°C
Dew Point: 59°F , 15°C
Humidity: 78%
Barometer: 30.12 inHg , 1020 hPa
Clouds: Clear
Visibility: 10 miles , 16 km
2022/07/05 08:56 KBLM 050856Z AUTO 23005KT 10SM CLR 19/15 A3012 RMK AO2 SLP199 T01940150 58005
K12N - Andover, NJ, USA
Distance from station: WNW 41mi, 67km
Updated: 07/05/2022 4:54am

 Wind from calm
Wind: Calm
Temperature: 64°F , 18°C
Dew Point: 61°F , 16°C
Humidity: 88%
Barometer: 30.10 inHg , 1019.3 hPa
2022/07/05 08:54 K12N 050854Z AUTO 00000KT 18/16 A3010 RMK AO1 SLP185 T01830156 55004
 
KFWN - Sussex, NJ, USA
Distance from station: NW 45mi, 72km
Updated: 07/05/2022 4:53am
Clear
Clear
 Wind from SSW
Wind: SSW 3 mph , 6 km/h
Temperature: 63°F , 17°C
Dew Point: 61°F , 16°C
Humidity: 94%
Barometer: 30.10 inHg , 1019.3 hPa
Clouds: Clear
Visibility: 9 miles , 14 km
2022/07/05 08:53 KFWN 050853Z AUTO 20003KT 9SM CLR 17/16 A3010 RMK AO2 SLP190 T01670161 56006 $
KISP - Islip, NY, USA
Distance from station: E 49mi, 79km
Updated: 07/05/2022 4:56am
Clear
Clear
 Wind from SSW
Wind: SSW 6 mph , 9 km/h
Temperature: 70°F , 21°C
Dew Point: 61°F , 16°C
Humidity: 73%
Barometer: 30.09 inHg , 1019 hPa
Clouds: Clear
Visibility: 10 miles , 16 km
2022/07/05 08:56 KISP 050856Z AUTO 21005KT 10SM CLR 21/16 A3009 RMK AO2 SLP188 T02060156 58007